sensor_id;sensor_type;location;lat;lon;timestamp;temperature;humidity
55785;DHT22;41709;52.536;5.688;2023-09-19T00:01:42;15.20;91.50
55785;DHT22;41709;52.536;5.688;2023-09-19T00:04:14;15.20;91.50
55785;DHT22;41709;52.536;5.688;2023-09-19T00:06:40;15.20;91.30
55785;DHT22;41709;52.536;5.688;2023-09-19T00:09:05;15.10;91.20
55785;DHT22;41709;52.536;5.688;2023-09-19T00:11:36;15.10;91.10
55785;DHT22;41709;52.536;5.688;2023-09-19T00:14:02;15.00;91.10
55785;DHT22;41709;52.536;5.688;2023-09-19T00:16:28;15.10;91.10
55785;DHT22;41709;52.536;5.688;2023-09-19T00:18:53;15.00;91.00
55785;DHT22;41709;52.536;5.688;2023-09-19T00:21:19;15.00;90.90
55785;DHT22;41709;52.536;5.688;2023-09-19T00:23:45;15.00;90.90
55785;DHT22;41709;52.536;5.688;2023-09-19T00:26:10;14.90;90.80
55785;DHT22;41709;52.536;5.688;2023-09-19T00:28:36;14.90;90.70
55785;DHT22;41709;52.536;5.688;2023-09-19T00:31:01;14.90;90.60
55785;DHT22;41709;52.536;5.688;2023-09-19T00:33:28;14.90;90.40
55785;DHT22;41709;52.536;5.688;2023-09-19T00:35:56;14.90;90.50
55785;DHT22;41709;52.536;5.688;2023-09-19T00:38:23;14.80;90.50
55785;DHT22;41709;52.536;5.688;2023-09-19T00:40:52;14.80;90.60
55785;DHT22;41709;52.536;5.688;2023-09-19T00:43:18;14.80;90.90
55785;DHT22;41709;52.536;5.688;2023-09-19T00:45:45;14.80;90.50
55785;DHT22;41709;52.536;5.688;2023-09-19T00:48:14;14.80;90.50
55785;DHT22;41709;52.536;5.688;2023-09-19T00:50:42;14.80;90.60
55785;DHT22;41709;52.536;5.688;2023-09-19T00:53:09;14.70;90.50
55785;DHT22;41709;52.536;5.688;2023-09-19T00:55:39;14.70;90.50
55785;DHT22;41709;52.536;5.688;2023-09-19T00:58:05;14.70;90.50
55785;DHT22;41709;52.536;5.688;2023-09-19T01:00:33;14.70;90.50
55785;DHT22;41709;52.536;5.688;2023-09-19T01:03:00;14.60;90.40
55785;DHT22;41709;52.536;5.688;2023-09-19T01:05:27;14.60;90.50
55785;DHT22;41709;52.536;5.688;2023-09-19T01:07:53;14.60;90.60
55785;DHT22;41709;52.536;5.688;2023-09-19T01:10:19;14.50;90.60
55785;DHT22;41709;52.536;5.688;2023-09-19T01:13:05;14.50;90.80
55785;DHT22;41709;52.536;5.688;2023-09-19T01:21:28;14.50;90.90
55785;DHT22;41709;52.536;5.688;2023-09-19T01:24:07;14.50;91.00
55785;DHT22;41709;52.536;5.688;2023-09-19T01:29:37;14.40;91.00
55785;DHT22;41709;52.536;5.688;2023-09-19T01:32:05;14.40;91.00
55785;DHT22;41709;52.536;5.688;2023-09-19T01:34:48;14.40;91.00
55785;DHT22;41709;52.536;5.688;2023-09-19T01:37:18;14.40;91.10
55785;DHT22;41709;52.536;5.688;2023-09-19T01:47:56;14.40;90.90
55785;DHT22;41709;52.536;5.688;2023-09-19T01:50:32;14.30;90.80
55785;DHT22;41709;52.536;5.688;2023-09-19T01:53:03;14.30;90.80
55785;DHT22;41709;52.536;5.688;2023-09-19T01:55:30;14.30;90.80
55785;DHT22;41709;52.536;5.688;2023-09-19T01:58:07;14.30;90.90
55785;DHT22;41709;52.536;5.688;2023-09-19T02:00:36;14.30;91.00
55785;DHT22;41709;52.536;5.688;2023-09-19T02:03:03;14.30;91.00
55785;DHT22;41709;52.536;5.688;2023-09-19T02:05:29;14.30;91.00
55785;DHT22;41709;52.536;5.688;2023-09-19T02:07:56;14.30;91.00
55785;DHT22;41709;52.536;5.688;2023-09-19T02:10:22;14.30;90.90
55785;DHT22;41709;52.536;5.688;2023-09-19T02:12:50;14.30;91.00
55785;DHT22;41709;52.536;5.688;2023-09-19T02:15:16;14.30;91.10
55785;DHT22;41709;52.536;5.688;2023-09-19T02:17:43;14.30;91.00
55785;DHT22;41709;52.536;5.688;2023-09-19T02:20:10;14.30;91.00
55785;DHT22;41709;52.536;5.688;2023-09-19T02:22:40;14.30;91.00
55785;DHT22;41709;52.536;5.688;2023-09-19T02:25:06;14.20;91.00
55785;DHT22;41709;52.536;5.688;2023-09-19T02:27:33;14.30;91.10
55785;DHT22;41709;52.536;5.688;2023-09-19T02:29:58;14.20;91.20
55785;DHT22;41709;52.536;5.688;2023-09-19T02:32:24;14.30;91.30
55785;DHT22;41709;52.536;5.688;2023-09-19T02:34:50;14.20;91.20
55785;DHT22;41709;52.536;5.688;2023-09-19T02:37:17;14.30;91.20
55785;DHT22;41709;52.536;5.688;2023-09-19T02:39:44;14.30;91.20
55785;DHT22;41709;52.536;5.688;2023-09-19T02:42:09;14.30;91.20
55785;DHT22;41709;52.536;5.688;2023-09-19T02:44:35;14.30;91.20
55785;DHT22;41709;52.536;5.688;2023-09-19T02:47:00;14.30;91.20
55785;DHT22;41709;52.536;5.688;2023-09-19T02:49:26;14.30;91.20
55785;DHT22;41709;52.536;5.688;2023-09-19T02:51:52;14.30;91.20
55785;DHT22;41709;52.536;5.688;2023-09-19T02:54:17;14.30;91.30
55785;DHT22;41709;52.536;5.688;2023-09-19T02:56:44;14.30;91.50
55785;DHT22;41709;52.536;5.688;2023-09-19T02:59:10;14.30;91.50
55785;DHT22;41709;52.536;5.688;2023-09-19T03:01:36;14.30;91.40
55785;DHT22;41709;52.536;5.688;2023-09-19T03:04:04;14.30;91.30
55785;DHT22;41709;52.536;5.688;2023-09-19T03:06:31;14.30;91.40
55785;DHT22;41709;52.536;5.688;2023-09-19T03:08:57;14.30;91.40
55785;DHT22;41709;52.536;5.688;2023-09-19T03:11:25;14.30;91.40
55785;DHT22;41709;52.536;5.688;2023-09-19T03:13:54;14.30;91.30
55785;DHT22;41709;52.536;5.688;2023-09-19T03:16:20;14.30;91.30
55785;DHT22;41709;52.536;5.688;2023-09-19T03:18:47;14.40;91.30
55785;DHT22;41709;52.536;5.688;2023-09-19T03:21:15;14.30;91.20
55785;DHT22;41709;52.536;5.688;2023-09-19T03:23:42;14.40;91.00
55785;DHT22;41709;52.536;5.688;2023-09-19T03:26:08;14.30;90.90
55785;DHT22;41709;52.536;5.688;2023-09-19T03:28:34;14.30;90.90
55785;DHT22;41709;52.536;5.688;2023-09-19T03:31:04;14.30;90.80
55785;DHT22;41709;52.536;5.688;2023-09-19T03:33:31;14.30;90.80
55785;DHT22;41709;52.536;5.688;2023-09-19T03:35:58;14.20;90.80
55785;DHT22;41709;52.536;5.688;2023-09-19T03:38:28;14.20;90.80
55785;DHT22;41709;52.536;5.688;2023-09-19T03:40:54;14.20;90.80
55785;DHT22;41709;52.536;5.688;2023-09-19T03:43:20;14.20;90.90
55785;DHT22;41709;52.536;5.688;2023-09-19T03:45:45;14.20;90.80
55785;DHT22;41709;52.536;5.688;2023-09-19T03:48:12;14.30;90.80
55785;DHT22;41709;52.536;5.688;2023-09-19T03:50:38;14.20;90.80
55785;DHT22;41709;52.536;5.688;2023-09-19T03:53:04;14.20;90.90
55785;DHT22;41709;52.536;5.688;2023-09-19T03:55:32;14.20;90.90
55785;DHT22;41709;52.536;5.688;2023-09-19T03:57:57;14.30;90.90
55785;DHT22;41709;52.536;5.688;2023-09-19T04:00:23;14.20;91.00
55785;DHT22;41709;52.536;5.688;2023-09-19T04:02:52;14.20;91.00
55785;DHT22;41709;52.536;5.688;2023-09-19T04:05:17;14.20;91.00
55785;DHT22;41709;52.536;5.688;2023-09-19T04:07:43;14.20;90.90
55785;DHT22;41709;52.536;5.688;2023-09-19T04:10:09;14.20;91.00
55785;DHT22;41709;52.536;5.688;2023-09-19T04:12:37;14.20;91.00
55785;DHT22;41709;52.536;5.688;2023-09-19T04:15:07;14.20;91.00
55785;DHT22;41709;52.536;5.688;2023-09-19T04:17:33;14.10;91.00
55785;DHT22;41709;52.536;5.688;2023-09-19T04:19:59;14.20;91.10
55785;DHT22;41709;52.536;5.688;2023-09-19T04:22:25;14.20;91.20
55785;DHT22;41709;52.536;5.688;2023-09-19T04:24:51;14.10;91.20
55785;DHT22;41709;52.536;5.688;2023-09-19T04:27:16;14.30;91.30
55785;DHT22;41709;52.536;5.688;2023-09-19T04:29:42;14.20;91.30
55785;DHT22;41709;52.536;5.688;2023-09-19T04:32:08;14.10;91.60
55785;DHT22;41709;52.536;5.688;2023-09-19T04:34:35;14.30;91.30
55785;DHT22;41709;52.536;5.688;2023-09-19T04:37:00;14.20;91.40
55785;DHT22;41709;52.536;5.688;2023-09-19T04:39:27;14.10;91.40
55785;DHT22;41709;52.536;5.688;2023-09-19T04:41:54;14.10;91.40
55785;DHT22;41709;52.536;5.688;2023-09-19T04:44:20;14.10;91.40
55785;DHT22;41709;52.536;5.688;2023-09-19T04:46:46;14.10;91.40
55785;DHT22;41709;52.536;5.688;2023-09-19T04:49:12;14.10;91.40
55785;DHT22;41709;52.536;5.688;2023-09-19T04:51:38;14.00;91.40
55785;DHT22;41709;52.536;5.688;2023-09-19T04:54:04;14.00;91.40
55785;DHT22;41709;52.536;5.688;2023-09-19T04:56:29;14.00;91.40
55785;DHT22;41709;52.536;5.688;2023-09-19T04:58:55;14.00;91.40
55785;DHT22;41709;52.536;5.688;2023-09-19T05:01:21;14.00;91.30
55785;DHT22;41709;52.536;5.688;2023-09-19T05:03:48;14.00;91.30
55785;DHT22;41709;52.536;5.688;2023-09-19T05:06:21;14.00;91.40
55785;DHT22;41709;52.536;5.688;2023-09-19T05:08:50;13.90;91.30
55785;DHT22;41709;52.536;5.688;2023-09-19T05:11:19;13.90;91.40
55785;DHT22;41709;52.536;5.688;2023-09-19T05:13:47;13.90;91.40
55785;DHT22;41709;52.536;5.688;2023-09-19T05:16:12;13.90;91.40
55785;DHT22;41709;52.536;5.688;2023-09-19T05:18:38;13.90;91.40
55785;DHT22;41709;52.536;5.688;2023-09-19T05:21:04;13.90;91.50
55785;DHT22;41709;52.536;5.688;2023-09-19T05:23:29;13.90;91.40
55785;DHT22;41709;52.536;5.688;2023-09-19T05:25:56;13.90;91.50
55785;DHT22;41709;52.536;5.688;2023-09-19T05:28:24;13.90;91.40
55785;DHT22;41709;52.536;5.688;2023-09-19T05:30:49;13.90;91.40
55785;DHT22;41709;52.536;5.688;2023-09-19T05:33:15;13.90;91.40
55785;DHT22;41709;52.536;5.688;2023-09-19T05:35:41;13.80;91.50
55785;DHT22;41709;52.536;5.688;2023-09-19T05:38:07;13.90;91.60
55785;DHT22;41709;52.536;5.688;2023-09-19T05:40:38;13.90;91.60
55785;DHT22;41709;52.536;5.688;2023-09-19T05:43:06;13.90;91.50
55785;DHT22;41709;52.536;5.688;2023-09-19T05:45:31;14.00;91.50
55785;DHT22;41709;52.536;5.688;2023-09-19T05:48:07;14.00;91.40
55785;DHT22;41709;52.536;5.688;2023-09-19T05:50:33;14.00;91.40
55785;DHT22;41709;52.536;5.688;2023-09-19T05:52:59;14.00;91.20
55785;DHT22;41709;52.536;5.688;2023-09-19T05:55:25;14.00;91.20
55785;DHT22;41709;52.536;5.688;2023-09-19T05:57:51;14.10;91.20
55785;DHT22;41709;52.536;5.688;2023-09-19T06:00:18;14.10;91.20
55785;DHT22;41709;52.536;5.688;2023-09-19T06:02:52;14.10;91.30
55785;DHT22;41709;52.536;5.688;2023-09-19T06:05:19;14.10;91.40
55785;DHT22;41709;52.536;5.688;2023-09-19T06:07:45;14.10;91.40
55785;DHT22;41709;52.536;5.688;2023-09-19T06:10:12;14.10;91.40
55785;DHT22;41709;52.536;5.688;2023-09-19T06:12:47;14.10;91.50
55785;DHT22;41709;52.536;5.688;2023-09-19T06:15:14;14.20;91.50
55785;DHT22;41709;52.536;5.688;2023-09-19T06:17:55;14.20;91.40
55785;DHT22;41709;52.536;5.688;2023-09-19T06:20:22;14.20;91.40
55785;DHT22;41709;52.536;5.688;2023-09-19T06:22:50;14.20;91.40
55785;DHT22;41709;52.536;5.688;2023-09-19T06:25:16;14.20;91.30
55785;DHT22;41709;52.536;5.688;2023-09-19T06:27:47;14.20;91.40
55785;DHT22;41709;52.536;5.688;2023-09-19T06:30:13;14.20;91.60
55785;DHT22;41709;52.536;5.688;2023-09-19T06:32:40;14.40;91.30
55785;DHT22;41709;52.536;5.688;2023-09-19T06:35:10;14.30;91.10
55785;DHT22;41709;52.536;5.688;2023-09-19T06:37:37;14.30;91.10
55785;DHT22;41709;52.536;5.688;2023-09-19T06:40:09;14.30;91.00
55785;DHT22;41709;52.536;5.688;2023-09-19T06:42:43;14.40;90.80
55785;DHT22;41709;52.536;5.688;2023-09-19T06:45:13;14.40;90.80
55785;DHT22;41709;52.536;5.688;2023-09-19T06:47:52;14.40;90.80
55785;DHT22;41709;52.536;5.688;2023-09-19T06:50:23;14.40;90.80
55785;DHT22;41709;52.536;5.688;2023-09-19T06:52:50;14.50;90.60
55785;DHT22;41709;52.536;5.688;2023-09-19T06:55:17;14.70;90.30
55785;DHT22;41709;52.536;5.688;2023-09-19T06:57:45;14.70;90.30
55785;DHT22;41709;52.536;5.688;2023-09-19T07:00:12;14.90;90.10
55785;DHT22;41709;52.536;5.688;2023-09-19T07:02:45;15.00;89.70
55785;DHT22;41709;52.536;5.688;2023-09-19T07:05:19;15.10;89.30
55785;DHT22;41709;52.536;5.688;2023-09-19T07:07:45;15.20;88.90
55785;DHT22;41709;52.536;5.688;2023-09-19T07:10:11;15.20;88.60
55785;DHT22;41709;52.536;5.688;2023-09-19T07:12:38;15.30;88.50
55785;DHT22;41709;52.536;5.688;2023-09-19T07:15:05;15.30;88.30
55785;DHT22;41709;52.536;5.688;2023-09-19T07:17:31;15.30;88.50
55785;DHT22;41709;52.536;5.688;2023-09-19T07:19:58;15.20;89.00
55785;DHT22;41709;52.536;5.688;2023-09-19T07:22:25;15.20;89.30
55785;DHT22;41709;52.536;5.688;2023-09-19T07:24:51;15.10;89.80
55785;DHT22;41709;52.536;5.688;2023-09-19T07:27:17;15.10;90.00
55785;DHT22;41709;52.536;5.688;2023-09-19T07:29:42;15.10;90.20
55785;DHT22;41709;52.536;5.688;2023-09-19T07:32:08;15.10;90.10
55785;DHT22;41709;52.536;5.688;2023-09-19T07:34:35;15.10;90.20
55785;DHT22;41709;52.536;5.688;2023-09-19T07:37:01;15.10;90.30
55785;DHT22;41709;52.536;5.688;2023-09-19T07:39:28;15.10;90.60
55785;DHT22;41709;52.536;5.688;2023-09-19T07:41:53;15.20;90.70
55785;DHT22;41709;52.536;5.688;2023-09-19T07:44:19;15.20;90.60
55785;DHT22;41709;52.536;5.688;2023-09-19T07:46:45;15.20;90.70
55785;DHT22;41709;52.536;5.688;2023-09-19T07:49:11;15.20;90.70
55785;DHT22;41709;52.536;5.688;2023-09-19T07:51:36;15.30;90.80
55785;DHT22;41709;52.536;5.688;2023-09-19T07:54:02;15.30;90.70
55785;DHT22;41709;52.536;5.688;2023-09-19T07:56:28;15.30;90.60
55785;DHT22;41709;52.536;5.688;2023-09-19T07:58:53;15.30;90.70
55785;DHT22;41709;52.536;5.688;2023-09-19T08:01:19;15.30;90.80
55785;DHT22;41709;52.536;5.688;2023-09-19T08:03:45;15.30;90.70
55785;DHT22;41709;52.536;5.688;2023-09-19T08:06:10;15.40;90.60
55785;DHT22;41709;52.536;5.688;2023-09-19T08:08:36;15.30;90.60
55785;DHT22;41709;52.536;5.688;2023-09-19T08:11:05;15.30;90.60
55785;DHT22;41709;52.536;5.688;2023-09-19T08:13:46;15.30;90.50
55785;DHT22;41709;52.536;5.688;2023-09-19T08:16:15;15.30;90.70
55785;DHT22;41709;52.536;5.688;2023-09-19T08:18:41;15.40;90.60
55785;DHT22;41709;52.536;5.688;2023-09-19T08:21:07;15.40;90.40
55785;DHT22;41709;52.536;5.688;2023-09-19T08:23:39;15.40;90.50
55785;DHT22;41709;52.536;5.688;2023-09-19T08:26:05;15.40;90.30
55785;DHT22;41709;52.536;5.688;2023-09-19T08:28:35;15.50;90.00
55785;DHT22;41709;52.536;5.688;2023-09-19T08:31:04;15.50;90.10
55785;DHT22;41709;52.536;5.688;2023-09-19T08:33:33;15.50;90.20
55785;DHT22;41709;52.536;5.688;2023-09-19T08:36:00;15.60;90.20
55785;DHT22;41709;52.536;5.688;2023-09-19T08:38:25;15.60;90.20
55785;DHT22;41709;52.536;5.688;2023-09-19T08:40:57;15.60;90.10
55785;DHT22;41709;52.536;5.688;2023-09-19T08:43:24;15.70;90.00
55785;DHT22;41709;52.536;5.688;2023-09-19T08:45:49;15.80;89.90
55785;DHT22;41709;52.536;5.688;2023-09-19T08:48:28;15.80;89.80
55785;DHT22;41709;52.536;5.688;2023-09-19T08:51:07;15.80;90.00
55785;DHT22;41709;52.536;5.688;2023-09-19T08:53:42;15.80;90.10
55785;DHT22;41709;52.536;5.688;2023-09-19T08:56:17;15.90;90.30
55785;DHT22;41709;52.536;5.688;2023-09-19T08:59:09;15.90;89.90
55785;DHT22;41709;52.536;5.688;2023-09-19T09:01:38;15.90;90.00
55785;DHT22;41709;52.536;5.688;2023-09-19T09:04:08;16.00;89.90
55785;DHT22;41709;52.536;5.688;2023-09-19T09:06:34;16.00;89.90
55785;DHT22;41709;52.536;5.688;2023-09-19T09:09:02;16.00;90.10
55785;DHT22;41709;52.536;5.688;2023-09-19T09:11:29;16.10;89.90
55785;DHT22;41709;52.536;5.688;2023-09-19T09:13:54;16.00;90.00
55785;DHT22;41709;52.536;5.688;2023-09-19T09:16:20;16.10;90.00
55785;DHT22;41709;52.536;5.688;2023-09-19T09:18:46;16.20;90.10
55785;DHT22;41709;52.536;5.688;2023-09-19T09:21:18;16.30;90.00
55785;DHT22;41709;52.536;5.688;2023-09-19T09:23:43;16.30;89.50
55785;DHT22;41709;52.536;5.688;2023-09-19T09:26:09;16.30;88.70
55785;DHT22;41709;52.536;5.688;2023-09-19T09:28:35;16.40;88.80
55785;DHT22;41709;52.536;5.688;2023-09-19T09:31:04;16.40;89.40
55785;DHT22;41709;52.536;5.688;2023-09-19T09:33:38;16.50;88.90
55785;DHT22;41709;52.536;5.688;2023-09-19T09:36:05;16.50;88.20
55785;DHT22;41709;52.536;5.688;2023-09-19T09:38:48;16.50;88.20
55785;DHT22;41709;52.536;5.688;2023-09-19T09:41:36;16.50;87.50
55785;DHT22;41709;52.536;5.688;2023-09-19T09:44:13;16.60;88.40
55785;DHT22;41709;52.536;5.688;2023-09-19T09:46:43;16.60;88.80
55785;DHT22;41709;52.536;5.688;2023-09-19T09:49:25;16.60;87.90
55785;DHT22;41709;52.536;5.688;2023-09-19T09:52:01;16.70;88.30
55785;DHT22;41709;52.536;5.688;2023-09-19T09:54:31;16.70;87.50
55785;DHT22;41709;52.536;5.688;2023-09-19T09:57:03;16.80;87.80
55785;DHT22;41709;52.536;5.688;2023-09-19T09:59:51;16.70;87.40
55785;DHT22;41709;52.536;5.688;2023-09-19T10:02:30;16.80;87.80
55785;DHT22;41709;52.536;5.688;2023-09-19T10:07:40;16.90;86.70
55785;DHT22;41709;52.536;5.688;2023-09-19T10:10:12;17.00;85.40
55785;DHT22;41709;52.536;5.688;2023-09-19T10:12:46;17.00;85.70
55785;DHT22;41709;52.536;5.688;2023-09-19T10:15:15;17.10;86.20
55785;DHT22;41709;52.536;5.688;2023-09-19T10:17:43;17.10;85.40
55785;DHT22;41709;52.536;5.688;2023-09-19T10:20:18;17.10;85.20
55785;DHT22;41709;52.536;5.688;2023-09-19T10:23:00;17.20;85.80
55785;DHT22;41709;52.536;5.688;2023-09-19T10:25:29;17.20;84.60
55785;DHT22;41709;52.536;5.688;2023-09-19T10:28:00;17.20;84.70
55785;DHT22;41709;52.536;5.688;2023-09-19T10:30:29;17.20;85.70
55785;DHT22;41709;52.536;5.688;2023-09-19T10:33:00;17.20;84.80
55785;DHT22;41709;52.536;5.688;2023-09-19T10:35:25;17.30;85.00
55785;DHT22;41709;52.536;5.688;2023-09-19T10:37:52;17.30;85.00
55785;DHT22;41709;52.536;5.688;2023-09-19T10:40:21;17.30;84.10
55785;DHT22;41709;52.536;5.688;2023-09-19T10:42:48;17.40;85.00
55785;DHT22;41709;52.536;5.688;2023-09-19T10:45:16;17.40;85.10
55785;DHT22;41709;52.536;5.688;2023-09-19T10:47:43;17.50;84.90
55785;DHT22;41709;52.536;5.688;2023-09-19T10:50:09;17.60;84.30
55785;DHT22;41709;52.536;5.688;2023-09-19T10:52:40;17.60;84.00
55785;DHT22;41709;52.536;5.688;2023-09-19T10:55:07;17.60;84.30
55785;DHT22;41709;52.536;5.688;2023-09-19T10:57:35;17.70;84.20
55785;DHT22;41709;52.536;5.688;2023-09-19T11:00:08;17.70;84.10
55785;DHT22;41709;52.536;5.688;2023-09-19T11:05:38;17.80;84.50
55785;DHT22;41709;52.536;5.688;2023-09-19T11:08:07;17.90;83.50
55785;DHT22;41709;52.536;5.688;2023-09-19T11:10:46;17.90;81.80
55785;DHT22;41709;52.536;5.688;2023-09-19T11:13:28;18.00;82.70
55785;DHT22;41709;52.536;5.688;2023-09-19T11:26:48;18.10;82.50
55785;DHT22;41709;52.536;5.688;2023-09-19T11:29:27;18.10;81.40
55785;DHT22;41709;52.536;5.688;2023-09-19T11:31:54;18.10;82.00
55785;DHT22;41709;52.536;5.688;2023-09-19T11:37:03;18.20;81.90
55785;DHT22;41709;52.536;5.688;2023-09-19T11:39:30;18.20;81.60
55785;DHT22;41709;52.536;5.688;2023-09-19T11:41:56;18.20;81.80
55785;DHT22;41709;52.536;5.688;2023-09-19T11:46:52;18.30;81.90
55785;DHT22;41709;52.536;5.688;2023-09-19T11:49:19;18.30;81.70
55785;DHT22;41709;52.536;5.688;2023-09-19T11:51:51;18.30;81.30
55785;DHT22;41709;52.536;5.688;2023-09-19T11:54:17;18.30;81.80
55785;DHT22;41709;52.536;5.688;2023-09-19T11:56:44;18.30;82.10
55785;DHT22;41709;52.536;5.688;2023-09-19T11:59:11;18.40;82.10
55785;DHT22;41709;52.536;5.688;2023-09-19T12:01:38;18.40;81.90
55785;DHT22;41709;52.536;5.688;2023-09-19T12:04:11;18.40;81.50
55785;DHT22;41709;52.536;5.688;2023-09-19T12:06:37;18.50;82.70
55785;DHT22;41709;52.536;5.688;2023-09-19T12:09:13;18.50;80.90
55785;DHT22;41709;52.536;5.688;2023-09-19T12:11:43;18.50;80.40
55785;DHT22;41709;52.536;5.688;2023-09-19T12:14:21;18.60;80.20
55785;DHT22;41709;52.536;5.688;2023-09-19T12:16:57;18.60;80.60
55785;DHT22;41709;52.536;5.688;2023-09-19T12:19:25;18.50;80.00
55785;DHT22;41709;52.536;5.688;2023-09-19T12:21:55;18.40;79.60
55785;DHT22;41709;52.536;5.688;2023-09-19T12:24:23;18.40;79.60
55785;DHT22;41709;52.536;5.688;2023-09-19T12:26:52;18.40;79.70
55785;DHT22;41709;52.536;5.688;2023-09-19T12:29:21;18.30;79.60
55785;DHT22;41709;52.536;5.688;2023-09-19T12:31:54;18.20;81.10
55785;DHT22;41709;52.536;5.688;2023-09-19T12:34:27;18.30;81.60
55785;DHT22;41709;52.536;5.688;2023-09-19T12:37:13;18.30;81.20
55785;DHT22;41709;52.536;5.688;2023-09-19T12:39:47;18.40;81.50
55785;DHT22;41709;52.536;5.688;2023-09-19T12:42:19;18.40;80.70
55785;DHT22;41709;52.536;5.688;2023-09-19T12:44:47;18.40;80.20
55785;DHT22;41709;52.536;5.688;2023-09-19T12:47:17;18.30;80.90
55785;DHT22;41709;52.536;5.688;2023-09-19T12:50:16;18.40;81.50
55785;DHT22;41709;52.536;5.688;2023-09-19T12:52:47;18.40;80.90
55785;DHT22;41709;52.536;5.688;2023-09-19T12:55:24;18.40;80.50
55785;DHT22;41709;52.536;5.688;2023-09-19T12:58:17;18.30;80.40
55785;DHT22;41709;52.536;5.688;2023-09-19T13:00:45;18.20;81.00
55785;DHT22;41709;52.536;5.688;2023-09-19T13:05:55;18.20;81.40
55785;DHT22;41709;52.536;5.688;2023-09-19T13:08:28;18.20;81.50
55785;DHT22;41709;52.536;5.688;2023-09-19T13:11:06;18.20;81.60
55785;DHT22;41709;52.536;5.688;2023-09-19T13:13:33;18.20;81.80
55785;DHT22;41709;52.536;5.688;2023-09-19T13:16:01;18.20;81.60
55785;DHT22;41709;52.536;5.688;2023-09-19T13:18:28;18.20;82.30
55785;DHT22;41709;52.536;5.688;2023-09-19T13:21:08;18.30;82.20
55785;DHT22;41709;52.536;5.688;2023-09-19T13:23:41;18.20;82.70
55785;DHT22;41709;52.536;5.688;2023-09-19T13:26:07;18.30;82.00
55785;DHT22;41709;52.536;5.688;2023-09-19T13:28:38;18.30;82.00
55785;DHT22;41709;52.536;5.688;2023-09-19T13:31:03;18.30;82.30
55785;DHT22;41709;52.536;5.688;2023-09-19T13:33:29;18.40;82.20
55785;DHT22;41709;52.536;5.688;2023-09-19T13:35:55;18.40;82.30
55785;DHT22;41709;52.536;5.688;2023-09-19T13:38:22;18.40;81.70
55785;DHT22;41709;52.536;5.688;2023-09-19T13:40:48;18.40;82.60
55785;DHT22;41709;52.536;5.688;2023-09-19T13:43:14;18.40;82.50
55785;DHT22;41709;52.536;5.688;2023-09-19T13:45:41;18.40;82.10
55785;DHT22;41709;52.536;5.688;2023-09-19T13:48:09;18.40;82.30
55785;DHT22;41709;52.536;5.688;2023-09-19T13:50:37;18.50;82.50
55785;DHT22;41709;52.536;5.688;2023-09-19T13:53:10;18.50;82.60
55785;DHT22;41709;52.536;5.688;2023-09-19T13:55:37;18.50;82.50
55785;DHT22;41709;52.536;5.688;2023-09-19T13:58:03;18.50;82.20
55785;DHT22;41709;52.536;5.688;2023-09-19T14:00:31;18.40;82.70
55785;DHT22;41709;52.536;5.688;2023-09-19T14:03:00;18.40;82.40
55785;DHT22;41709;52.536;5.688;2023-09-19T14:05:26;18.30;82.40
55785;DHT22;41709;52.536;5.688;2023-09-19T14:07:53;18.30;82.80
55785;DHT22;41709;52.536;5.688;2023-09-19T14:10:21;18.20;83.40
55785;DHT22;41709;52.536;5.688;2023-09-19T14:12:47;18.20;83.40
55785;DHT22;41709;52.536;5.688;2023-09-19T14:15:13;18.20;83.20
55785;DHT22;41709;52.536;5.688;2023-09-19T14:17:39;18.20;84.20
55785;DHT22;41709;52.536;5.688;2023-09-19T14:20:11;18.10;85.30
55785;DHT22;41709;52.536;5.688;2023-09-19T14:22:36;18.10;86.50
55785;DHT22;41709;52.536;5.688;2023-09-19T14:25:03;18.10;86.20
55785;DHT22;41709;52.536;5.688;2023-09-19T14:27:29;18.10;85.80
55785;DHT22;41709;52.536;5.688;2023-09-19T14:29:55;18.00;85.80
55785;DHT22;41709;52.536;5.688;2023-09-19T14:32:22;18.00;86.90
55785;DHT22;41709;52.536;5.688;2023-09-19T14:34:48;17.90;87.40
55785;DHT22;41709;52.536;5.688;2023-09-19T14:37:14;17.90;88.20
55785;DHT22;41709;52.536;5.688;2023-09-19T14:39:41;17.90;88.10
55785;DHT22;41709;52.536;5.688;2023-09-19T14:42:10;17.90;88.00
55785;DHT22;41709;52.536;5.688;2023-09-19T14:44:36;17.80;87.80
55785;DHT22;41709;52.536;5.688;2023-09-19T14:47:03;17.80;88.30
55785;DHT22;41709;52.536;5.688;2023-09-19T14:49:30;17.90;87.80
55785;DHT22;41709;52.536;5.688;2023-09-19T14:51:55;17.90;87.60
55785;DHT22;41709;52.536;5.688;2023-09-19T14:54:21;17.80;87.50
55785;DHT22;41709;52.536;5.688;2023-09-19T14:56:47;17.80;87.20
55785;DHT22;41709;52.536;5.688;2023-09-19T14:59:19;17.80;87.60
55785;DHT22;41709;52.536;5.688;2023-09-19T15:01:45;17.80;87.70
55785;DHT22;41709;52.536;5.688;2023-09-19T15:04:11;17.80;87.30
55785;DHT22;41709;52.536;5.688;2023-09-19T15:06:36;17.80;86.90
55785;DHT22;41709;52.536;5.688;2023-09-19T15:09:02;17.80;86.70
55785;DHT22;41709;52.536;5.688;2023-09-19T15:11:30;17.80;86.70
55785;DHT22;41709;52.536;5.688;2023-09-19T15:13:55;17.70;87.00
55785;DHT22;41709;52.536;5.688;2023-09-19T15:16:22;17.60;87.70
55785;DHT22;41709;52.536;5.688;2023-09-19T15:18:48;17.50;88.80
55785;DHT22;41709;52.536;5.688;2023-09-19T15:21:14;17.40;90.00
55785;DHT22;41709;52.536;5.688;2023-09-19T15:23:41;17.40;90.30
55785;DHT22;41709;52.536;5.688;2023-09-19T15:26:10;17.30;90.80
55785;DHT22;41709;52.536;5.688;2023-09-19T15:28:37;17.30;91.10
55785;DHT22;41709;52.536;5.688;2023-09-19T15:31:03;17.30;91.30
55785;DHT22;41709;52.536;5.688;2023-09-19T15:33:30;17.30;91.50
55785;DHT22;41709;52.536;5.688;2023-09-19T15:36:13;17.20;91.50
55785;DHT22;41709;52.536;5.688;2023-09-19T15:39:08;17.10;91.90
55785;DHT22;41709;52.536;5.688;2023-09-19T15:41:40;17.00;92.10
55785;DHT22;41709;52.536;5.688;2023-09-19T15:44:19;16.90;92.20
55785;DHT22;41709;52.536;5.688;2023-09-19T15:46:46;16.90;92.20
55785;DHT22;41709;52.536;5.688;2023-09-19T15:49:12;16.90;92.30
55785;DHT22;41709;52.536;5.688;2023-09-19T15:51:38;16.90;92.20
55785;DHT22;41709;52.536;5.688;2023-09-19T15:54:13;16.90;92.10
55785;DHT22;41709;52.536;5.688;2023-09-19T15:56:43;16.90;92.10
55785;DHT22;41709;52.536;5.688;2023-09-19T15:59:09;16.80;91.90
55785;DHT22;41709;52.536;5.688;2023-09-19T16:01:38;16.80;92.10
55785;DHT22;41709;52.536;5.688;2023-09-19T16:04:04;16.70;91.90
55785;DHT22;41709;52.536;5.688;2023-09-19T16:06:31;16.80;92.00
55785;DHT22;41709;52.536;5.688;2023-09-19T16:08:58;16.80;92.00
55785;DHT22;41709;52.536;5.688;2023-09-19T16:11:27;16.80;91.90
55785;DHT22;41709;52.536;5.688;2023-09-19T16:13:53;16.80;91.90
55785;DHT22;41709;52.536;5.688;2023-09-19T16:16:20;16.80;91.90
55785;DHT22;41709;52.536;5.688;2023-09-19T16:18:54;16.80;92.20
55785;DHT22;41709;52.536;5.688;2023-09-19T16:21:25;16.80;92.20